createdAt,value
2023-03-21T00:00:35.240Z,77.64
2023-03-21T00:01:35.238Z,77.23
2023-03-21T00:02:35.332Z,77.23
2023-03-21T00:03:35.295Z,77.12
2023-03-21T00:04:48.351Z,77.33
2023-03-21T00:05:36.707Z,77.23
2023-03-21T00:06:35.181Z,77.02
2023-03-21T00:07:35.188Z,77.33
2023-03-21T00:08:35.160Z,77.23
2023-03-21T00:09:35.152Z,77.12
2023-03-21T00:11:36.120Z,76.81
2023-03-21T00:12:35.141Z,76.92
2023-03-21T00:13:35.299Z,77.02
2023-03-21T00:14:35.102Z,76.92
2023-03-21T00:15:44.277Z,77.12
2023-03-21T00:16:39.396Z,77.02
2023-03-21T00:17:35.061Z,76.92
2023-03-21T00:18:35.053Z,76.81
2023-03-21T00:19:35.052Z,76.51
2023-03-21T00:20:35.031Z,76.61
2023-03-21T00:21:46.512Z,76.40
2023-03-21T00:22:36.026Z,76.61
2023-03-21T00:23:35.112Z,76.72
2023-03-21T00:24:35.002Z,76.61
2023-03-21T00:25:35.033Z,76.61
2023-03-21T00:26:34.970Z,76.61
2023-03-21T00:27:53.156Z,76.51
2023-03-21T00:28:35.945Z,76.61
2023-03-21T00:29:34.936Z,76.51
2023-03-21T00:30:34.944Z,76.40
2023-03-21T00:31:35.045Z,76.40
2023-03-21T00:32:39.773Z,76.51
2023-03-21T00:33:35.888Z,76.40
2023-03-21T00:34:43.032Z,76.40
2023-03-21T00:35:57.961Z,76.51
2023-03-21T00:36:35.911Z,76.40
2023-03-21T00:37:34.852Z,76.61
2023-03-21T00:38:34.842Z,76.51
2023-03-21T00:39:35.063Z,76.40
2023-03-21T00:40:40.409Z,76.61
2023-03-21T00:41:42.380Z,76.40
2023-03-21T00:42:35.789Z,76.51
2023-03-21T00:43:34.776Z,76.51
2023-03-21T00:44:34.777Z,76.61
2023-03-21T00:45:34.769Z,76.61
2023-03-21T00:46:43.942Z,76.40
2023-03-21T00:47:35.821Z,76.20
2023-03-21T00:48:34.751Z,76.31
2023-03-21T00:49:34.729Z,76.72
2023-03-21T00:50:34.723Z,76.72
2023-03-21T00:51:34.686Z,76.61
2023-03-21T00:52:40.877Z,76.51
2023-03-21T00:53:35.705Z,76.40
2023-03-21T00:54:34.669Z,76.51
2023-03-21T00:55:34.941Z,76.51
2023-03-21T00:56:34.644Z,76.51
2023-03-21T00:57:39.356Z,76.61
2023-03-21T00:58:35.618Z,76.72
2023-03-21T00:59:34.625Z,76.92
2023-03-21T01:00:34.644Z,76.72
2023-03-21T01:01:34.650Z,76.72
2023-03-21T01:02:34.582Z,76.92
2023-03-21T01:03:34.577Z,76.81
2023-03-21T01:04:34.729Z,76.81
2023-03-21T01:05:34.682Z,77.12
2023-03-21T01:06:34.529Z,76.81
2023-03-21T01:07:34.511Z,76.92
2023-03-21T01:08:48.618Z,77.12
2023-03-21T01:09:35.511Z,77.12
2023-03-21T01:10:34.490Z,77.02
2023-03-21T01:11:34.473Z,77.02
2023-03-21T01:12:34.461Z,77.02
2023-03-21T01:13:36.338Z,77.02
2023-03-21T01:14:34.730Z,77.12
2023-03-21T01:15:34.439Z,77.33
2023-03-21T01:16:34.565Z,77.33
2023-03-21T01:17:34.422Z,77.33
2023-03-21T01:18:34.410Z,77.53
2023-03-21T01:19:48.690Z,77.33
2023-03-21T01:20:35.381Z,77.43
2023-03-21T01:21:34.418Z,77.36
2023-03-21T01:22:34.391Z,77.33
2023-03-21T01:23:34.391Z,77.23
2023-03-21T01:24:37.658Z,77.36
2023-03-21T01:25:34.351Z,77.36
2023-03-21T01:26:34.317Z,77.47
2023-03-21T01:27:34.300Z,77.47
2023-03-21T01:28:34.292Z,77.26
2023-03-21T01:29:34.295Z,77.67
2023-03-21T01:30:41.593Z,77.57
2023-03-21T01:31:35.282Z,77.57
2023-03-21T01:32:34.241Z,77.67
2023-03-21T01:33:34.243Z,77.67
2023-03-21T01:34:34.250Z,77.77
2023-03-21T01:35:40.977Z,77.77
2023-03-21T01:36:35.247Z,77.87
2023-03-21T01:37:34.183Z,78.08
2023-03-21T01:38:34.184Z,77.87
2023-03-21T01:39:34.183Z,77.87
2023-03-21T01:40:34.162Z,77.87
2023-03-21T01:41:42.501Z,77.77
2023-03-21T01:42:35.133Z,77.87
2023-03-21T01:43:34.129Z,78.08
2023-03-21T01:44:34.166Z,78.28
2023-03-21T01:45:34.124Z,78.39
2023-03-21T01:46:45.338Z,78.28
2023-03-21T01:47:35.077Z,78.39
2023-03-21T01:48:34.094Z,78.39
2023-03-21T01:49:34.071Z,78.49
2023-03-21T01:50:34.056Z,78.49
2023-03-21T01:51:34.076Z,78.59
2023-03-21T01:52:37.417Z,78.70
2023-03-21T01:53:34.030Z,78.80
2023-03-21T01:54:34.056Z,78.90
2023-03-21T01:55:34.005Z,78.80
2023-03-21T01:56:34.023Z,78.80
2023-03-21T01:57:43.566Z,78.80
2023-03-21T01:58:34.967Z,78.80
2023-03-21T01:59:33.960Z,78.80
2023-03-21T02:00:33.940Z,78.70
2023-03-21T02:01:33.927Z,78.59
2023-03-21T02:02:33.948Z,78.49
2023-03-21T02:03:36.357Z,78.90
2023-03-21T02:04:34.064Z,78.90
2023-03-21T02:05:33.880Z,79.00
2023-03-21T02:06:33.901Z,78.90
2023-03-21T02:07:33.866Z,78.90
2023-03-21T02:08:39.533Z,79.00
2023-03-21T02:09:34.894Z,79.11
2023-03-21T02:10:33.849Z,79.11
2023-03-21T02:11:33.928Z,79.11
2023-03-21T02:12:33.807Z,79.21
2023-03-21T02:13:33.801Z,79.24
2023-03-21T02:14:33.828Z,79.45
2023-03-21T02:15:33.779Z,79.55
2023-03-21T02:16:33.843Z,79.45
2023-03-21T02:17:33.773Z,79.24
2023-03-21T02:18:33.752Z,79.45
2023-03-21T02:19:39.337Z,79.55
2023-03-21T02:20:34.773Z,79.55
2023-03-21T02:21:33.709Z,79.55
2023-03-21T02:22:33.864Z,79.66
2023-03-21T02:23:33.701Z,79.55
2023-03-21T02:24:33.707Z,79.55
2023-03-21T02:25:33.674Z,79.55
2023-03-21T02:26:41.956Z,79.45
2023-03-21T02:27:34.685Z,79.35
2023-03-21T02:28:33.640Z,79.55
2023-03-21T02:29:33.633Z,79.45
2023-03-21T02:30:45.840Z,79.45
2023-03-21T02:31:34.627Z,79.55
2023-03-21T02:32:37.842Z,79.66
2023-03-21T02:33:33.573Z,79.66
2023-03-21T02:34:33.582Z,79.75
2023-03-21T02:35:37.143Z,79.75
2023-03-21T02:36:34.608Z,80.17
2023-03-21T02:37:38.315Z,80.37
2023-03-21T02:38:34.541Z,80.37
2023-03-21T02:39:33.526Z,80.37
2023-03-21T02:40:33.504Z,80.58
2023-03-21T02:41:40.046Z,80.58
2023-03-21T02:42:34.488Z,80.47
2023-03-21T02:43:33.588Z,80.47
2023-03-21T02:44:33.459Z,80.37
2023-03-21T02:45:33.502Z,80.37
2023-03-21T02:46:42.917Z,80.37
2023-03-21T02:47:34.426Z,80.37
2023-03-21T02:48:48.133Z,80.37
2023-03-21T02:49:34.443Z,80.41
2023-03-21T02:50:33.397Z,80.51
2023-03-21T02:51:33.406Z,80.51
2023-03-21T02:52:39.020Z,80.82
2023-03-21T02:53:34.387Z,80.72
2023-03-21T02:54:47.282Z,80.92
2023-03-21T02:55:34.338Z,80.82
2023-03-21T02:56:33.330Z,80.92
2023-03-21T02:57:42.203Z,80.82
2023-03-21T02:58:34.309Z,80.72
2023-03-21T02:59:35.730Z,80.62
2023-03-21T03:00:33.293Z,80.62
2023-03-21T03:01:33.366Z,80.62
2023-03-21T03:02:33.308Z,80.51
2023-03-21T03:03:34.912Z,80.51
2023-03-21T03:04:33.291Z,80.41
2023-03-21T03:05:33.234Z,80.51
2023-03-21T03:06:33.231Z,80.41
2023-03-21T03:07:33.220Z,80.37
2023-03-21T03:08:43.227Z,80.51
2023-03-21T03:09:34.212Z,80.62
2023-03-21T03:10:33.177Z,80.62
2023-03-21T03:11:33.227Z,80.72
2023-03-21T03:12:33.151Z,80.82
2023-03-21T03:13:33.151Z,80.72
2023-03-21T03:14:47.097Z,80.82
2023-03-21T03:15:34.132Z,80.82
2023-03-21T03:16:33.113Z,80.82
2023-03-21T03:17:33.105Z,80.82
2023-03-21T03:18:33.094Z,80.82
2023-03-21T03:19:41.679Z,80.92
2023-03-21T03:20:34.076Z,81.02
2023-03-21T03:21:33.100Z,80.92
2023-03-21T03:22:33.045Z,80.92
2023-03-21T03:23:33.044Z,80.92
2023-03-21T03:24:33.034Z,81.02
2023-03-21T03:25:42.507Z,81.02
2023-03-21T03:26:34.004Z,81.02
2023-03-21T03:27:32.996Z,80.92
2023-03-21T03:28:32.985Z,81.02
2023-03-21T03:29:33.026Z,80.99
2023-03-21T03:30:42.233Z,81.13
2023-03-21T03:31:33.945Z,81.02
2023-03-21T03:32:32.946Z,80.99
2023-03-21T03:33:32.927Z,80.99
2023-03-21T03:34:32.930Z,81.09
2023-03-21T03:35:32.921Z,80.99
2023-03-21T03:36:33.575Z,80.99
2023-03-21T03:37:32.898Z,80.88
2023-03-21T03:38:32.875Z,80.78
2023-03-21T03:39:32.925Z,80.88
2023-03-21T03:40:33.955Z,80.88
2023-03-21T03:41:56.262Z,80.88
2023-03-21T03:42:33.825Z,80.99
2023-03-21T03:43:32.819Z,80.88
2023-03-21T03:44:32.825Z,80.88
2023-03-21T03:45:32.798Z,80.99
2023-03-21T03:46:32.799Z,80.99
2023-03-21T03:47:37.841Z,80.88
2023-03-21T03:48:33.806Z,81.09
2023-03-21T03:49:32.767Z,81.09
2023-03-21T03:50:32.744Z,81.09
2023-03-21T03:51:32.733Z,80.88
2023-03-21T03:52:32.720Z,80.88
2023-03-21T03:53:32.716Z,80.99
2023-03-21T03:54:32.699Z,80.99
2023-03-21T03:55:32.677Z,81.09
2023-03-21T03:56:32.682Z,80.99
2023-03-21T03:57:32.658Z,80.99
2023-03-21T03:58:44.640Z,81.09
2023-03-21T03:59:33.656Z,81.09
2023-03-21T04:00:32.637Z,81.09
2023-03-21T04:01:32.645Z,81.09
2023-03-21T04:02:32.637Z,81.20
2023-03-21T04:03:47.666Z,81.20
2023-03-21T04:04:33.653Z,81.09
2023-03-21T04:05:32.581Z,80.99
2023-03-21T04:06:32.584Z,81.09
2023-03-21T04:07:32.580Z,81.20
2023-03-21T04:08:32.576Z,81.40
2023-03-21T04:09:43.726Z,81.29
2023-03-21T04:10:33.524Z,81.20
2023-03-21T04:11:32.515Z,81.29
2023-03-21T04:12:32.535Z,81.20
2023-03-21T04:13:32.499Z,81.20
2023-03-21T04:14:44.053Z,81.20
2023-03-21T04:15:33.475Z,81.20
2023-03-21T04:16:35.574Z,81.20
2023-03-21T04:17:32.446Z,81.20
2023-03-21T04:18:32.461Z,81.29
2023-03-21T04:19:32.453Z,81.40
2023-03-21T04:20:43.298Z,81.40
2023-03-21T04:21:33.406Z,81.29
2023-03-21T04:22:32.406Z,81.29
2023-03-21T04:23:32.386Z,81.40
2023-03-21T04:24:32.461Z,81.20
2023-03-21T04:25:34.186Z,81.09
2023-03-21T04:26:32.388Z,81.20
2023-03-21T04:27:32.348Z,81.29
2023-03-21T04:28:32.349Z,81.20
2023-03-21T04:29:32.397Z,81.29
2023-03-21T04:30:32.344Z,81.20
2023-03-21T04:31:32.389Z,81.29
2023-03-21T04:32:32.486Z,81.29
2023-03-21T04:33:32.275Z,81.40
2023-03-21T04:34:32.464Z,81.40
2023-03-21T04:35:32.311Z,81.50
2023-03-21T04:36:32.269Z,81.50
2023-03-21T04:37:32.231Z,81.71
2023-03-21T04:38:32.231Z,81.60
2023-03-21T04:39:32.250Z,81.60
2023-03-21T04:40:32.346Z,81.81
2023-03-21T04:41:32.203Z,81.91
2023-03-21T04:42:32.353Z,81.91
2023-03-21T04:43:32.200Z,81.91
2023-03-21T04:44:32.172Z,82.05
2023-03-21T04:45:32.211Z,82.15
2023-03-21T04:46:32.148Z,82.15
2023-03-21T04:47:32.125Z,82.15
2023-03-21T04:48:32.137Z,82.15
2023-03-21T04:49:32.112Z,82.26
2023-03-21T04:50:32.111Z,82.26
2023-03-21T04:51:32.092Z,82.26
2023-03-21T04:52:32.131Z,82.26
2023-03-21T04:53:32.074Z,82.26
2023-03-21T04:54:32.052Z,82.26
2023-03-21T04:55:32.051Z,82.26
2023-03-21T04:56:32.086Z,82.26
2023-03-21T04:57:32.018Z,82.22
2023-03-21T04:58:32.011Z,82.22
2023-03-21T04:59:32.007Z,82.12
2023-03-21T05:00:32.000Z,82.12
2023-03-21T05:01:32.091Z,82.01
2023-03-21T05:02:31.960Z,81.91
2023-03-21T05:03:32.326Z,82.12
2023-03-21T05:04:31.942Z,82.12
2023-03-21T05:05:31.943Z,82.12
2023-03-21T05:06:31.936Z,82.22
2023-03-21T05:07:31.921Z,82.32
2023-03-21T05:08:31.907Z,82.32
2023-03-21T05:09:31.883Z,82.22
2023-03-21T05:10:31.932Z,82.22
2023-03-21T05:11:31.889Z,82.32
2023-03-21T05:12:31.852Z,82.42
2023-03-21T05:13:31.844Z,82.42
2023-03-21T05:14:31.839Z,82.42
2023-03-21T05:15:31.821Z,82.42
2023-03-21T05:16:31.893Z,82.42
2023-03-21T05:17:31.801Z,82.42
2023-03-21T05:18:31.831Z,82.42
2023-03-21T05:19:31.788Z,82.42
2023-03-21T05:20:31.810Z,82.42
2023-03-21T05:21:31.753Z,82.42
2023-03-21T05:22:31.745Z,82.42
2023-03-21T05:23:31.846Z,82.42
2023-03-21T05:24:31.723Z,82.32
2023-03-21T05:25:31.724Z,82.32
2023-03-21T05:26:31.704Z,82.22
2023-03-21T05:27:31.683Z,82.01
2023-03-21T05:28:31.690Z,81.81
2023-03-21T05:29:31.687Z,81.81
2023-03-21T05:30:31.676Z,81.71
2023-03-21T05:31:31.679Z,81.71
2023-03-21T05:32:31.648Z,81.60
2023-03-21T05:33:31.634Z,81.50
2023-03-21T05:34:31.632Z,81.50
2023-03-21T05:35:31.622Z,81.40
2023-03-21T05:36:31.628Z,81.40
2023-03-21T05:37:31.588Z,81.26
2023-03-21T05:38:31.623Z,81.26
2023-03-21T05:39:31.606Z,81.36
2023-03-21T05:40:31.596Z,81.36
2023-03-21T05:41:31.536Z,81.26
2023-03-21T05:42:31.558Z,81.05
2023-03-21T05:43:31.537Z,81.15
2023-03-21T05:44:31.517Z,81.26
2023-03-21T05:45:31.506Z,81.26
2023-03-21T05:46:31.599Z,81.36
2023-03-21T05:47:31.488Z,81.36
2023-03-21T05:48:31.477Z,81.46
2023-03-21T05:49:31.473Z,81.36
2023-03-21T05:50:31.449Z,81.26
2023-03-21T05:51:31.432Z,81.05
2023-03-21T05:52:31.418Z,81.05
2023-03-21T05:53:31.407Z,81.05
2023-03-21T05:54:31.433Z,81.15
2023-03-21T05:55:31.403Z,81.05
2023-03-21T05:56:31.395Z,81.05
2023-03-21T05:57:31.361Z,81.05
2023-03-21T05:58:31.372Z,81.05
2023-03-21T05:59:31.351Z,81.26
2023-03-21T06:00:31.350Z,81.26
2023-03-21T06:01:31.323Z,81.26
2023-03-21T06:02:31.347Z,81.15
2023-03-21T06:03:31.360Z,81.15
2023-03-21T06:04:31.322Z,81.15
2023-03-21T06:05:31.290Z,81.26
2023-03-21T06:06:31.267Z,81.36
2023-03-21T06:07:31.271Z,81.36
2023-03-21T06:08:31.252Z,81.26
2023-03-21T06:09:31.454Z,81.26
2023-03-21T06:10:31.253Z,81.36
2023-03-21T06:11:31.224Z,81.46
2023-03-21T06:12:31.214Z,81.57
2023-03-21T06:13:31.220Z,81.46
2023-03-21T06:14:31.187Z,81.57
2023-03-21T06:15:31.196Z,81.77
2023-03-21T06:16:31.165Z,81.77
2023-03-21T06:17:31.169Z,81.87
2023-03-21T06:18:31.133Z,81.98
2023-03-21T06:19:31.145Z,82.18
2023-03-21T06:20:31.289Z,82.08
2023-03-21T06:21:31.204Z,81.98
2023-03-21T06:22:31.099Z,82.08
2023-03-21T06:23:31.102Z,82.18
2023-03-21T06:24:31.078Z,81.98
2023-03-21T06:25:31.173Z,81.63
2023-03-21T06:26:31.056Z,81.52
2023-03-21T06:27:31.050Z,81.63
2023-03-21T06:28:31.037Z,81.52
2023-03-21T06:29:31.028Z,81.43
2023-03-21T06:30:31.029Z,81.22
2023-03-21T06:31:31.059Z,81.32
2023-03-21T06:32:30.997Z,81.32
2023-03-21T06:33:30.986Z,80.91
2023-03-21T06:34:30.967Z,80.51
2023-03-21T06:35:31.026Z,80.30
2023-03-21T06:36:31.075Z,80.40
2023-03-21T06:37:30.954Z,80.60
2023-03-21T06:38:30.988Z,80.60
2023-03-21T06:39:30.920Z,80.71
2023-03-21T06:40:30.918Z,80.81
2023-03-21T06:41:30.916Z,80.71
2023-03-21T06:42:30.900Z,80.71
2023-03-21T06:43:30.890Z,80.71
2023-03-21T06:44:30.868Z,80.51
2023-03-21T06:45:31.009Z,80.40
2023-03-21T06:46:30.920Z,80.71
2023-03-21T06:47:30.862Z,80.91
2023-03-21T06:48:30.820Z,80.81
2023-03-21T06:49:30.843Z,80.77
2023-03-21T06:50:30.842Z,80.57
2023-03-21T06:51:30.919Z,80.77
2023-03-21T06:52:30.781Z,80.81
2023-03-21T06:53:31.023Z,81.01
2023-03-21T06:54:30.753Z,81.08
2023-03-21T06:55:30.770Z,81.29
2023-03-21T06:56:30.821Z,81.59
2023-03-21T06:57:30.735Z,81.59
2023-03-21T06:58:30.716Z,81.29
2023-03-21T06:59:30.882Z,81.49
2023-03-21T07:00:30.744Z,81.79
2023-03-21T07:01:30.830Z,81.90
2023-03-21T07:02:30.753Z,82.00
2023-03-21T07:03:30.672Z,82.31
2023-03-21T07:04:30.653Z,82.62
2023-03-21T07:05:30.685Z,82.71
2023-03-21T07:06:30.635Z,82.41
2023-03-21T07:07:30.635Z,82.41
2023-03-21T07:08:30.826Z,82.51
2023-03-21T07:09:30.781Z,82.62
2023-03-21T07:10:30.633Z,82.21
2023-03-21T07:11:30.591Z,82.31
2023-03-21T07:12:30.631Z,82.71
2023-03-21T07:13:30.626Z,83.13
2023-03-21T07:14:30.586Z,82.92
2023-03-21T07:15:30.557Z,83.13
2023-03-21T07:16:30.562Z,83.13
2023-03-21T07:17:30.561Z,83.95
2023-03-21T07:18:30.511Z,84.29
2023-03-21T07:19:30.526Z,84.60
2023-03-21T07:20:30.527Z,85.72
2023-03-21T07:21:30.487Z,85.72
2023-03-21T07:22:30.472Z,85.72
2023-03-21T07:23:30.461Z,85.72
2023-03-21T07:24:30.452Z,86.14
2023-03-21T07:25:30.513Z,86.85
2023-03-21T07:26:30.420Z,86.14
2023-03-21T07:27:30.679Z,86.14
2023-03-21T07:28:30.408Z,86.14
2023-03-21T07:29:30.404Z,87.06
2023-03-21T07:30:30.447Z,87.26
2023-03-21T07:31:30.422Z,87.67
2023-03-21T07:32:30.363Z,87.57
2023-03-21T07:33:30.355Z,88.39
2023-03-21T07:34:30.347Z,88.70
2023-03-21T07:35:30.343Z,89.66
2023-03-21T07:36:30.311Z,89.36
2023-03-21T07:37:30.318Z,90.07
2023-03-21T07:38:30.299Z,90.58
2023-03-21T07:39:30.299Z,91.09
2023-03-21T07:40:30.331Z,91.09
2023-03-21T07:41:30.279Z,91.91
2023-03-21T07:43:30.301Z,92.53
2023-03-21T07:44:30.244Z,92.83
2023-03-21T07:45:30.235Z,93.19
2023-03-21T07:46:30.305Z,93.08
2023-03-21T07:47:30.206Z,92.98
2023-03-21T07:48:30.195Z,93.29
2023-03-21T07:49:30.262Z,93.60
2023-03-21T07:50:30.186Z,93.80
2023-03-21T07:51:30.182Z,93.90
2023-03-21T07:52:30.152Z,93.95
2023-03-21T07:53:30.302Z,94.15
2023-03-21T07:54:30.130Z,94.46
2023-03-21T07:55:30.167Z,94.67
2023-03-21T07:56:30.110Z,94.98
2023-03-21T07:57:30.282Z,95.07
2023-03-21T07:58:30.087Z,95.07
2023-03-21T07:59:30.071Z,95.28
2023-03-21T08:00:30.072Z,95.18
2023-03-21T08:01:30.053Z,95.28
2023-03-21T08:02:30.112Z,95.49
2023-03-21T08:03:30.391Z,95.59
2023-03-21T08:04:30.050Z,95.79
2023-03-21T08:05:30.063Z,95.79
2023-03-21T08:06:30.004Z,95.49
2023-03-21T08:07:29.984Z,95.49
2023-03-21T08:08:29.980Z,95.69
2023-03-21T08:09:31.138Z,95.79
2023-03-21T08:10:29.982Z,95.59
2023-03-21T08:11:29.945Z,95.59
2023-03-21T08:12:29.954Z,95.90
2023-03-21T08:13:30.235Z,95.90
2023-03-21T08:14:29.906Z,96.00
2023-03-21T08:15:29.987Z,96.20
2023-03-21T08:16:29.950Z,96.31
2023-03-21T08:17:29.883Z,96.51
2023-03-21T08:18:29.870Z,96.72
2023-03-21T08:19:29.858Z,96.72
2023-03-21T08:20:29.867Z,96.87
2023-03-21T08:21:29.837Z,96.87
2023-03-21T08:22:29.829Z,96.77
2023-03-21T08:23:29.817Z,96.87
2023-03-21T08:24:29.798Z,96.82
2023-03-21T08:25:29.809Z,96.72
2023-03-21T08:26:29.788Z,96.72
2023-03-21T08:27:29.771Z,96.72
2023-03-21T08:28:29.772Z,96.72
2023-03-21T08:29:29.750Z,96.82
2023-03-21T08:30:29.852Z,96.82
2023-03-21T08:31:29.718Z,96.82
2023-03-21T08:32:29.729Z,96.92
2023-03-21T08:33:29.701Z,96.92
2023-03-21T08:34:29.734Z,97.13
2023-03-21T08:35:29.688Z,97.23
2023-03-21T08:36:29.672Z,97.33
2023-03-21T08:37:29.662Z,97.44
2023-03-21T08:38:29.651Z,97.64
2023-03-21T08:39:29.680Z,97.64
2023-03-21T08:40:29.649Z,97.64
2023-03-21T08:41:29.615Z,97.44
2023-03-21T08:42:29.603Z,97.54
2023-03-21T08:43:29.594Z,97.64
2023-03-21T08:44:29.588Z,97.54
2023-03-21T08:45:29.582Z,97.54
2023-03-21T08:46:29.656Z,97.33
2023-03-21T08:47:29.558Z,96.92
2023-03-21T08:48:29.541Z,97.03
2023-03-21T08:49:29.566Z,96.92
2023-03-21T08:50:29.563Z,97.03
2023-03-21T08:51:29.504Z,96.72
2023-03-21T08:52:30.245Z,96.51
2023-03-21T08:53:29.495Z,96.62
2023-03-21T08:54:29.484Z,96.62
2023-03-21T08:55:29.482Z,96.72
2023-03-21T08:56:29.466Z,96.92
2023-03-21T08:57:29.474Z,96.92
2023-03-21T08:58:29.438Z,96.72
2023-03-21T08:59:29.427Z,96.51
2023-03-21T09:00:29.440Z,96.62
2023-03-21T09:01:29.432Z,96.62
2023-03-21T09:02:29.396Z,96.62
2023-03-21T09:03:29.386Z,96.72
2023-03-21T09:04:29.556Z,96.82
2023-03-21T09:05:29.395Z,96.77
2023-03-21T09:06:29.349Z,96.82
2023-03-21T09:07:29.350Z,96.66
2023-03-21T09:08:29.329Z,96.97
2023-03-21T09:09:29.327Z,97.17
2023-03-21T09:10:29.347Z,97.48
2023-03-21T09:11:29.306Z,97.58
2023-03-21T09:12:29.280Z,97.69
2023-03-21T09:13:29.290Z,97.79
2023-03-21T09:14:29.513Z,97.79
2023-03-21T09:15:29.270Z,97.89
2023-03-21T09:16:29.319Z,97.69
2023-03-21T09:17:29.245Z,97.79
2023-03-21T09:18:29.299Z,97.79
2023-03-21T09:19:29.220Z,97.79
2023-03-21T09:20:29.218Z,97.79
2023-03-21T09:21:29.191Z,97.79
2023-03-21T09:22:29.178Z,97.85
2023-03-21T09:23:29.176Z,97.85
2023-03-21T09:24:29.156Z,97.85
2023-03-21T09:25:29.173Z,97.95
2023-03-21T09:26:29.131Z,98.05
2023-03-21T09:27:29.143Z,97.95
2023-03-21T09:28:29.862Z,97.95
2023-03-21T09:29:29.118Z,98.05
2023-03-21T09:30:29.141Z,98.05
2023-03-21T09:31:29.161Z,98.20
2023-03-21T09:32:29.073Z,98.25
2023-03-21T09:33:29.087Z,98.10
2023-03-21T09:34:29.042Z,98.10
2023-03-21T09:35:29.064Z,98.10
2023-03-21T09:36:29.032Z,98.16
2023-03-21T09:37:29.012Z,98.05
2023-03-21T09:38:29.012Z,98.05
2023-03-21T09:39:29.012Z,98.05
2023-03-21T09:40:28.994Z,98.05
2023-03-21T09:41:28.994Z,98.05
2023-03-21T09:42:28.973Z,98.05
2023-03-21T09:43:28.958Z,97.95
2023-03-21T09:44:28.956Z,97.64
2023-03-21T09:45:28.941Z,97.54
2023-03-21T09:46:28.960Z,97.64
2023-03-21T09:47:28.922Z,97.74
2023-03-21T09:48:28.895Z,98.05
2023-03-21T09:49:28.902Z,97.95
2023-03-21T09:50:28.897Z,98.16
2023-03-21T09:51:28.869Z,98.36
2023-03-21T09:52:28.857Z,98.46
2023-03-21T09:53:28.851Z,98.46
2023-03-21T09:54:29.043Z,98.46
2023-03-21T09:55:28.836Z,98.46
2023-03-21T09:56:28.815Z,98.57
2023-03-21T09:57:28.795Z,98.67
2023-03-21T09:58:28.785Z,98.57
2023-03-21T09:59:29.014Z,98.67
2023-03-21T10:00:28.844Z,98.67
2023-03-21T10:01:28.759Z,98.57
2023-03-21T10:02:28.749Z,98.57
2023-03-21T10:03:28.735Z,98.67
2023-03-21T10:04:28.839Z,98.77
2023-03-21T10:05:28.727Z,98.77
2023-03-21T10:06:28.724Z,98.97
2023-03-21T10:07:28.696Z,98.97
2023-03-21T10:08:28.674Z,98.97
2023-03-21T10:09:28.677Z,99.08
2023-03-21T10:10:28.659Z,99.08
2023-03-21T10:11:29.126Z,99.08
2023-03-21T10:12:28.627Z,99.18
2023-03-21T10:13:28.626Z,99.08
2023-03-21T10:14:28.615Z,98.97
2023-03-21T10:15:28.614Z,98.87
2023-03-21T10:16:28.629Z,98.97
2023-03-21T10:17:28.599Z,98.97
2023-03-21T10:18:28.760Z,99.18
2023-03-21T10:19:28.644Z,99.08
2023-03-21T10:20:28.593Z,99.08
2023-03-21T10:21:56.590Z,99.08
2023-03-21T10:22:29.533Z,99.18
2023-03-21T10:23:28.518Z,99.28
2023-03-21T10:24:28.562Z,99.08
2023-03-21T10:25:28.524Z,99.18
2023-03-21T10:26:28.499Z,99.18
2023-03-21T10:27:28.482Z,99.08
2023-03-21T10:28:29.143Z,98.87
2023-03-21T10:29:28.464Z,98.87
2023-03-21T10:30:28.446Z,98.97
2023-03-21T10:31:28.488Z,99.08
2023-03-21T10:32:28.431Z,98.87
2023-03-21T10:33:28.399Z,98.77
2023-03-21T10:34:28.465Z,98.67
2023-03-21T10:35:28.414Z,98.67
2023-03-21T10:36:28.407Z,98.57
2023-03-21T10:37:28.395Z,98.46
2023-03-21T10:38:28.350Z,98.57
2023-03-21T10:39:28.339Z,98.67
2023-03-21T10:40:28.348Z,98.67
2023-03-21T10:41:28.378Z,98.67
2023-03-21T10:42:28.317Z,98.67
2023-03-21T10:43:28.316Z,98.36
2023-03-21T10:44:28.291Z,98.16
2023-03-21T10:45:28.270Z,98.05
2023-03-21T10:46:28.493Z,98.00
2023-03-21T10:47:28.469Z,97.80
2023-03-21T10:48:28.354Z,97.80
2023-03-21T10:49:28.231Z,98.00
2023-03-21T10:50:28.267Z,97.80
2023-03-21T10:51:28.229Z,97.70
2023-03-21T10:52:28.204Z,97.80
2023-03-21T10:53:28.184Z,97.91
2023-03-21T10:54:28.172Z,97.65
2023-03-21T10:55:28.175Z,97.55
2023-03-21T10:56:28.183Z,97.86
2023-03-21T10:57:28.146Z,97.86
2023-03-21T10:58:28.148Z,97.55
2023-03-21T10:59:28.126Z,97.04
2023-03-21T11:00:28.104Z,96.53
2023-03-21T11:01:28.154Z,96.73
2023-03-21T11:02:28.156Z,96.94
2023-03-21T11:03:28.083Z,96.22
2023-03-21T11:04:28.085Z,96.22
2023-03-21T11:05:28.104Z,96.63
2023-03-21T11:06:28.067Z,96.53
2023-03-21T11:07:28.035Z,96.42
2023-03-21T11:08:28.016Z,96.22
2023-03-21T11:09:28.021Z,95.97
2023-03-21T11:10:29.037Z,95.97
2023-03-21T11:11:28.002Z,96.07
2023-03-21T11:12:27.986Z,95.15
2023-03-21T11:13:27.980Z,94.95
2023-03-21T11:14:27.949Z,94.99
2023-03-21T11:15:27.968Z,94.48
2023-03-21T11:16:27.981Z,94.37
2023-03-21T11:17:27.930Z,94.78
2023-03-21T11:18:27.951Z,94.99
2023-03-21T11:19:27.911Z,94.68
2023-03-21T11:20:27.923Z,94.99
2023-03-21T11:21:29.642Z,95.20
2023-03-21T11:22:27.885Z,95.50
2023-03-21T11:23:27.864Z,95.20
2023-03-21T11:24:27.844Z,95.29
2023-03-21T11:25:27.865Z,95.29
2023-03-21T11:26:28.195Z,95.50
2023-03-21T11:27:27.815Z,95.70
2023-03-21T11:28:27.826Z,95.61
2023-03-21T11:29:27.820Z,95.40
2023-03-21T11:30:27.853Z,95.50
2023-03-21T11:31:27.787Z,95.56
2023-03-21T11:32:27.775Z,95.66
2023-03-21T11:33:27.760Z,95.97
2023-03-21T11:34:27.749Z,96.07
2023-03-21T11:35:27.748Z,95.97
2023-03-21T11:36:27.727Z,95.97
2023-03-21T11:37:27.741Z,95.61
2023-03-21T11:38:27.712Z,95.70
2023-03-21T11:39:27.700Z,95.50
2023-03-21T11:40:27.738Z,96.01
2023-03-21T11:41:27.682Z,96.12
2023-03-21T11:42:27.664Z,96.22
2023-03-21T11:43:27.699Z,96.53
2023-03-21T11:44:27.659Z,96.22
2023-03-21T11:45:27.805Z,96.42
2023-03-21T11:46:27.733Z,96.22
2023-03-21T11:47:27.698Z,96.22
2023-03-21T11:48:27.701Z,96.32
2023-03-21T11:49:27.679Z,96.22
2023-03-21T11:50:27.571Z,96.12
2023-03-21T11:51:27.721Z,96.01
2023-03-21T11:52:27.554Z,96.22
2023-03-21T11:53:27.643Z,96.32
2023-03-21T11:54:27.538Z,96.53
2023-03-21T11:55:27.645Z,96.53
2023-03-21T11:56:27.550Z,96.12
2023-03-21T11:57:27.576Z,96.32
2023-03-21T11:58:27.558Z,96.42
2023-03-21T11:59:27.489Z,96.53
2023-03-21T12:00:27.474Z,96.63
2023-03-21T12:01:27.742Z,96.63
2023-03-21T12:02:27.505Z,96.42
2023-03-21T12:03:30.720Z,96.22
2023-03-21T12:04:28.546Z,96.63
2023-03-21T12:05:27.482Z,96.73
2023-03-21T12:06:27.415Z,96.53
2023-03-21T12:07:27.408Z,96.53
2023-03-21T12:08:27.384Z,96.73
2023-03-21T12:09:27.419Z,96.83
2023-03-21T12:10:27.368Z,97.04
2023-03-21T12:11:27.408Z,96.73
2023-03-21T12:12:38.432Z,96.94
2023-03-21T12:13:28.334Z,97.04
2023-03-21T12:14:27.333Z,96.94
2023-03-21T12:15:27.316Z,97.04
2023-03-21T12:16:27.371Z,97.04
2023-03-21T12:17:27.295Z,97.14
2023-03-21T12:18:27.282Z,97.34
2023-03-21T12:19:27.285Z,97.45
2023-03-21T12:20:27.259Z,97.45
2023-03-21T12:21:27.294Z,97.50
2023-03-21T12:22:27.250Z,97.09
2023-03-21T12:23:27.356Z,97.20
2023-03-21T12:24:27.235Z,96.89
2023-03-21T12:25:27.210Z,96.48
2023-03-21T12:26:27.214Z,96.42
2023-03-21T12:27:27.206Z,96.22
2023-03-21T12:28:33.109Z,96.48
2023-03-21T12:29:28.167Z,96.58
2023-03-21T12:30:27.147Z,96.58
2023-03-21T12:31:27.191Z,96.58
2023-03-21T12:32:27.138Z,96.48
2023-03-21T12:33:27.126Z,96.48
2023-03-21T12:34:27.112Z,96.58
2023-03-21T12:35:27.110Z,96.58
2023-03-21T12:36:27.090Z,96.38
2023-03-21T12:37:27.079Z,96.22
2023-03-21T12:38:27.061Z,96.58
2023-03-21T12:39:27.065Z,96.99
2023-03-21T12:40:27.054Z,96.99
2023-03-21T12:41:27.057Z,96.58
2023-03-21T12:42:27.018Z,96.69
2023-03-21T12:43:27.034Z,96.58
2023-03-21T12:44:26.996Z,96.58
2023-03-21T12:45:29.488Z,96.69
2023-03-21T12:46:27.000Z,97.09
2023-03-21T12:47:26.986Z,97.30
2023-03-21T12:48:27.043Z,96.89
2023-03-21T12:49:26.944Z,96.89
2023-03-21T12:50:27.008Z,96.99
2023-03-21T12:51:26.920Z,97.20
2023-03-21T12:52:26.911Z,96.79
2023-03-21T12:53:26.899Z,96.99
2023-03-21T12:54:26.879Z,97.09